Terminal Aerodrome Forecast
Issued by NWS Memphis, TN

Home | Current Version | Previous Version | Text Only | Print | Product List | Glossary On
Versions: 1 2 3 4 5 6 7 8 9 10 11 12 13 14 15 16 17 18 19 20 21 22 23 24
049
FTUS44 KMEG 040258 AAB
TAFMEM
TAF AMD
KMEM 040258Z 0403/0424 08010KT 6SM -RA SCT015 OVC040
     FM040400 08010KT 5SM -RA BR SCT007 OVC015
     FM040600 08008KT 5SM -RA BR OVC007
     FM041200 08006KT P6SM VCSH OVC005
     FM041600 08005KT P6SM OVC009
     FM042000 33005KT P6SM OVC015=

USA.gov is the U.S. government's official web portal to all federal, state and local government web resources and services.